createdAt,value
2022-11-27T00:00:11.908Z,8.989
2022-11-27T00:01:11.471Z,8.994
2022-11-27T00:02:11.794Z,8.984
2022-11-27T00:03:12.097Z,8.979
2022-11-27T00:04:11.473Z,8.989
2022-11-27T00:05:11.625Z,9.005
2022-11-27T00:06:11.564Z,9.020
2022-11-27T00:07:11.965Z,9.015
2022-11-27T00:08:11.329Z,9.015
2022-11-27T00:09:11.040Z,9
2022-11-27T00:10:12.729Z,9.005
2022-11-27T00:11:11.691Z,9.005
2022-11-27T00:12:11.802Z,9.024
2022-11-27T00:13:11.768Z,9.020
2022-11-27T00:14:11.946Z,9.015
2022-11-27T00:15:16.976Z,9.045
2022-11-27T00:16:11.266Z,9.034
2022-11-27T00:17:12.130Z,9.045
2022-11-27T00:18:12.309Z,9.045
2022-11-27T00:19:11.418Z,9.029
2022-11-27T00:20:11.888Z,9.020
2022-11-27T00:21:12.044Z,9.010
2022-11-27T00:22:12.334Z,9.029
2022-11-27T00:23:11.590Z,9.020
2022-11-27T00:24:11.800Z,9.015
2022-11-27T00:25:12.090Z,9.029
2022-11-27T00:26:12.251Z,9.029
2022-11-27T00:27:12.322Z,9.029
2022-11-27T00:28:11.640Z,9.074
2022-11-27T00:29:11.930Z,9.149
2022-11-27T00:30:12.464Z,9.166
2022-11-27T00:31:11.819Z,9.159
2022-11-27T00:32:11.817Z,9.137
2022-11-27T00:33:12.005Z,9.142
2022-11-27T00:34:11.357Z,9.166
2022-11-27T00:35:12.007Z,9.171
2022-11-27T00:36:12.272Z,9.159
2022-11-27T00:37:12.450Z,9.171
2022-11-27T00:38:12.368Z,9.182
2022-11-27T00:39:12.017Z,9.220
2022-11-27T00:40:11.756Z,9.244
2022-11-27T00:41:11.954Z,9.25
2022-11-27T00:42:12.151Z,9.244
2022-11-27T00:43:11.259Z,9.265
2022-11-27T00:44:11.439Z,9.265
2022-11-27T00:45:12.082Z,9.270
2022-11-27T00:46:11.313Z,9.279
2022-11-27T00:47:12.144Z,9.279
2022-11-27T00:48:11.670Z,9.274
2022-11-27T00:49:12.366Z,9.284
2022-11-27T00:50:12.055Z,9.295
2022-11-27T00:51:12.657Z,9.315
2022-11-27T00:52:17.264Z,9.300
2022-11-27T00:53:11.683Z,9.321
2022-11-27T00:54:17.069Z,9.321
2022-11-27T00:55:12.688Z,9.310
2022-11-27T00:56:12.484Z,9.305
2022-11-27T00:57:11.990Z,9.329
2022-11-27T00:58:11.751Z,9.321
2022-11-27T00:59:12.668Z,9.310
2022-11-27T01:00:13.769Z,9.293
2022-11-27T01:01:13.825Z,9.291
2022-11-27T01:02:12.275Z,9.266
2022-11-27T01:03:12.007Z,9.260
2022-11-27T01:04:11.652Z,9.253
2022-11-27T01:05:12.173Z,9.255
2022-11-27T01:06:11.571Z,9.244
2022-11-27T01:07:12.047Z,9.288
2022-11-27T01:08:11.746Z,9.279
2022-11-27T01:09:12.081Z,9.239
2022-11-27T01:10:11.895Z,9.239
2022-11-27T01:11:11.602Z,9.244
2022-11-27T01:12:26.316Z,9.199
2022-11-27T01:13:11.792Z,9.189
2022-11-27T01:14:11.426Z,9.171
2022-11-27T01:15:12.343Z,9.149
2022-11-27T01:16:12.524Z,9.131
2022-11-27T01:17:12.362Z,9.120
2022-11-27T01:18:11.383Z,9.069
2022-11-27T01:19:11.591Z,9.074
2022-11-27T01:20:12.662Z,9.064
2022-11-27T01:21:11.268Z,9.060
2022-11-27T01:22:11.492Z,9.060
2022-11-27T01:23:12.058Z,9.039
2022-11-27T01:24:11.488Z,9.034
2022-11-27T01:25:11.850Z,9.020
2022-11-27T01:26:11.068Z,9.050
2022-11-27T01:27:12.154Z,9.024
2022-11-27T01:28:11.222Z,9.020
2022-11-27T01:29:12.439Z,9.005
2022-11-27T01:30:12.045Z,9.034
2022-11-27T01:31:11.244Z,8.965
2022-11-27T01:32:11.666Z,8.939
2022-11-27T01:33:11.683Z,8.904
2022-11-27T01:34:12.114Z,8.914
2022-11-27T01:35:12.284Z,8.930
2022-11-27T01:36:11.462Z,8.914
2022-11-27T01:37:12.018Z,8.895
2022-11-27T01:38:11.103Z,8.890
2022-11-27T01:39:12.012Z,8.855
2022-11-27T01:40:11.798Z,8.894
2022-11-27T01:41:11.733Z,8.920
2022-11-27T01:42:12.119Z,8.925
2022-11-27T01:43:11.173Z,8.904
2022-11-27T01:44:11.530Z,8.890
2022-11-27T01:45:11.605Z,8.880
2022-11-27T01:46:12.019Z,8.879
2022-11-27T01:47:12.139Z,8.873
2022-11-27T01:48:11.314Z,8.826
2022-11-27T01:49:12.266Z,8.833
2022-11-27T01:50:11.663Z,8.838
2022-11-27T01:51:11.618Z,8.826
2022-11-27T01:52:11.731Z,8.833
2022-11-27T01:53:12.079Z,8.826
2022-11-27T01:54:12.160Z,8.821
2022-11-27T01:55:11.507Z,8.833
2022-11-27T01:56:11.801Z,8.845
2022-11-27T01:57:11.797Z,8.845
2022-11-27T01:58:12.123Z,8.879
2022-11-27T01:59:12.323Z,8.883
2022-11-27T02:00:12.397Z,8.899
2022-11-27T02:01:12.136Z,8.909
2022-11-27T02:02:11.524Z,8.895
2022-11-27T02:03:12.294Z,8.909
2022-11-27T02:04:11.583Z,8.914
2022-11-27T02:05:12.086Z,8.930
2022-11-27T02:06:11.344Z,8.914
2022-11-27T02:07:12.251Z,8.920
2022-11-27T02:08:11.538Z,8.909
2022-11-27T02:09:11.552Z,8.904
2022-11-27T02:10:11.607Z,8.890
2022-11-27T02:11:11.550Z,8.873
2022-11-27T02:12:11.765Z,8.899
2022-11-27T02:13:11.982Z,8.888
2022-11-27T02:14:12.167Z,8.859
2022-11-27T02:15:11.795Z,8.833
2022-11-27T02:16:16.434Z,8.826
2022-11-27T02:17:12.121Z,8.821
2022-11-27T02:18:11.269Z,8.810
2022-11-27T02:19:12.048Z,8.810
2022-11-27T02:20:12.351Z,8.800
2022-11-27T02:21:12.056Z,8.770
2022-11-27T02:22:11.386Z,8.782
2022-11-27T02:23:11.092Z,8.736
2022-11-27T02:24:12.189Z,8.766
2022-11-27T02:25:11.320Z,8.75
2022-11-27T02:26:11.742Z,8.75
2022-11-27T02:27:11.767Z,8.744
2022-11-27T02:28:11.817Z,8.725
2022-11-27T02:29:12.029Z,8.717
2022-11-27T02:30:12.509Z,8.717
2022-11-27T02:31:11.931Z,8.710
2022-11-27T02:32:11.226Z,8.715
2022-11-27T02:33:12.195Z,8.694
2022-11-27T02:34:11.310Z,8.677
2022-11-27T02:35:12.493Z,8.678
2022-11-27T02:36:11.632Z,8.694
2022-11-27T02:37:11.541Z,8.689
2022-11-27T02:38:11.510Z,8.689
2022-11-27T02:39:11.019Z,8.671
2022-11-27T02:40:12.228Z,8.694
2022-11-27T02:41:11.191Z,8.684
2022-11-27T02:42:11.650Z,8.678
2022-11-27T02:43:11.513Z,8.687
2022-11-27T02:44:11.489Z,8.699
2022-11-27T02:45:11.367Z,8.715
2022-11-27T02:46:11.772Z,8.710
2022-11-27T02:47:11.821Z,8.699
2022-11-27T02:48:12.072Z,8.687
2022-11-27T02:49:11.565Z,8.659
2022-11-27T02:50:11.763Z,8.678
2022-11-27T02:51:11.910Z,8.649
2022-11-27T02:52:12.164Z,8.631
2022-11-27T02:53:12.046Z,8.626
2022-11-27T02:54:12.039Z,8.614
2022-11-27T02:55:12.050Z,8.619
2022-11-27T02:56:12.143Z,8.600
2022-11-27T02:57:12.061Z,8.569
2022-11-27T02:58:12.172Z,8.569
2022-11-27T02:59:12.229Z,8.564
2022-11-27T03:00:11.735Z,8.560
2022-11-27T03:01:12.232Z,8.524
2022-11-27T03:02:11.662Z,8.529
2022-11-27T03:03:11.698Z,8.510
2022-11-27T03:04:12.018Z,8.5
2022-11-27T03:05:12.170Z,8.5
2022-11-27T03:06:12.348Z,8.5
2022-11-27T03:07:11.407Z,8.449
2022-11-27T03:08:11.430Z,8.454
2022-11-27T03:09:11.442Z,8.460
2022-11-27T03:10:12.614Z,8.470
2022-11-27T03:11:11.847Z,8.475
2022-11-27T03:12:11.739Z,8.5
2022-11-27T03:13:11.358Z,8.5
2022-11-27T03:14:11.166Z,8.520
2022-11-27T03:15:12.516Z,8.505
2022-11-27T03:16:11.740Z,8.5
2022-11-27T03:17:11.763Z,8.5
2022-11-27T03:18:11.776Z,8.5
2022-11-27T03:19:11.771Z,8.489
2022-11-27T03:20:11.719Z,8.489
2022-11-27T03:21:11.565Z,8.479
2022-11-27T03:22:11.598Z,8.460
2022-11-27T03:23:11.643Z,8.484
2022-11-27T03:24:11.704Z,8.494
2022-11-27T03:25:11.810Z,8.479
2022-11-27T03:26:11.664Z,8.479
2022-11-27T03:27:19.772Z,8.465
2022-11-27T03:28:11.772Z,8.454
2022-11-27T03:29:11.734Z,8.479
2022-11-27T03:30:12.400Z,8.470
2022-11-27T03:31:11.554Z,8.470
2022-11-27T03:32:11.653Z,8.470
2022-11-27T03:33:11.658Z,8.470
2022-11-27T03:34:11.684Z,8.475
2022-11-27T03:35:11.569Z,8.454
2022-11-27T03:36:11.731Z,8.465
2022-11-27T03:37:11.998Z,8.475
2022-11-27T03:38:11.935Z,8.494
2022-11-27T03:39:12.002Z,8.494
2022-11-27T03:40:12.458Z,8.489
2022-11-27T03:41:12.101Z,8.484
2022-11-27T03:42:12.202Z,8.5
2022-11-27T03:43:12.349Z,8.505
2022-11-27T03:44:11.419Z,8.539
2022-11-27T03:45:11.695Z,8.520
2022-11-27T03:46:12.018Z,8.539
2022-11-27T03:47:12.278Z,8.560
2022-11-27T03:48:11.458Z,8.576
2022-11-27T03:49:11.421Z,8.578
2022-11-27T03:50:11.168Z,8.585
2022-11-27T03:51:12.046Z,8.576
2022-11-27T03:52:12.017Z,8.578
2022-11-27T03:53:11.924Z,8.597
2022-11-27T03:54:11.714Z,8.614
2022-11-27T03:55:11.684Z,8.625
2022-11-27T03:56:11.762Z,8.631
2022-11-27T03:57:11.586Z,8.630
2022-11-27T03:58:11.477Z,8.614
2022-11-27T03:59:12.204Z,8.609
2022-11-27T04:00:11.889Z,8.631
2022-11-27T04:01:31.431Z,8.638
2022-11-27T04:02:11.585Z,8.649
2022-11-27T04:03:11.702Z,8.659
2022-11-27T04:04:11.998Z,8.682
2022-11-27T04:05:12.569Z,8.682
2022-11-27T04:06:11.935Z,8.699
2022-11-27T04:07:12.005Z,8.704
2022-11-27T04:08:12.244Z,8.684
2022-11-27T04:09:11.346Z,8.684
2022-11-27T04:10:11.699Z,8.694
2022-11-27T04:11:11.687Z,8.729
2022-11-27T04:12:11.636Z,8.739
2022-11-27T04:13:11.397Z,8.760
2022-11-27T04:14:11.519Z,8.805
2022-11-27T04:15:11.658Z,8.800
2022-11-27T04:16:11.523Z,8.855
2022-11-27T04:17:11.454Z,8.838
2022-11-27T04:18:11.559Z,8.868
2022-11-27T04:19:11.501Z,8.855
2022-11-27T04:20:12.021Z,8.883
2022-11-27T04:21:11.808Z,8.895
2022-11-27T04:22:11.940Z,8.894
2022-11-27T04:23:11.984Z,8.899
2022-11-27T04:24:12.093Z,8.895
2022-11-27T04:25:12.307Z,8.895
2022-11-27T04:26:11.447Z,8.904
2022-11-27T04:27:11.603Z,8.935
2022-11-27T04:28:11.669Z,8.935
2022-11-27T04:29:11.452Z,8.965
2022-11-27T04:30:11.812Z,8.979
2022-11-27T04:31:11.966Z,9.015
2022-11-27T04:32:12.256Z,9.020
2022-11-27T04:33:12.158Z,9.010
2022-11-27T04:34:11.362Z,9.039
2022-11-27T04:35:11.455Z,9.045
2022-11-27T04:36:11.561Z,9.015
2022-11-27T04:37:11.548Z,8.979
2022-11-27T04:38:12.023Z,8.984
2022-11-27T04:39:12.119Z,8.984
2022-11-27T04:40:12.391Z,9
2022-11-27T04:41:11.043Z,8.994
2022-11-27T04:42:12.153Z,9.010
2022-11-27T04:43:11.738Z,9
2022-11-27T04:44:11.912Z,9.020
2022-11-27T04:45:11.764Z,9.015
2022-11-27T04:46:11.739Z,9.020
2022-11-27T04:47:11.613Z,9.055
2022-11-27T04:48:11.763Z,9.074
2022-11-27T04:49:11.474Z,9.090
2022-11-27T04:50:11.956Z,9.116
2022-11-27T04:51:11.802Z,9.137
2022-11-27T04:52:11.697Z,9.142
2022-11-27T04:53:11.666Z,9.149
2022-11-27T04:54:11.873Z,9.189
2022-11-27T04:55:12.207Z,9.142
2022-11-27T04:56:11.932Z,9.189
2022-11-27T04:57:12.156Z,9.215
2022-11-27T04:58:11.258Z,9.189
2022-11-27T04:59:11.356Z,9.194
2022-11-27T05:00:11.938Z,9.184
2022-11-27T05:01:12.194Z,9.220
2022-11-27T05:02:11.496Z,9.215
2022-11-27T05:03:10.359Z,9.199
2022-11-27T05:04:11.746Z,9.199
2022-11-27T05:05:12.079Z,9.204
2022-11-27T05:06:11.789Z,9.225
2022-11-27T05:07:11.940Z,9.210
2022-11-27T05:08:11.385Z,9.225
2022-11-27T05:09:12.411Z,9.25
2022-11-27T05:10:11.875Z,9.25
2022-11-27T05:11:11.957Z,9.260
2022-11-27T05:12:11.843Z,9.260
2022-11-27T05:13:11.847Z,9.25
2022-11-27T05:14:12.076Z,9.245
2022-11-27T05:15:12.386Z,9.260
2022-11-27T05:16:11.716Z,9.270
2022-11-27T05:17:12.299Z,9.281
2022-11-27T05:18:11.558Z,9.282
2022-11-27T05:19:11.457Z,9.295
2022-11-27T05:20:12.285Z,9.326
2022-11-27T05:21:12.416Z,9.310
2022-11-27T05:22:11.608Z,9.326
2022-11-27T05:23:11.962Z,9.355
2022-11-27T05:24:12.222Z,9.373
2022-11-27T05:25:12.053Z,9.373
2022-11-27T05:26:12.145Z,9.390
2022-11-27T05:27:12.086Z,9.399
2022-11-27T05:28:11.491Z,9.414
2022-11-27T05:29:11.472Z,9.439
2022-11-27T05:30:12.617Z,9.435
2022-11-27T05:31:11.690Z,9.420
2022-11-27T05:32:11.680Z,9.409
2022-11-27T05:33:12.049Z,9.409
2022-11-27T05:34:11.965Z,9.420
2022-11-27T05:35:12.197Z,9.449
2022-11-27T05:36:11.507Z,9.494
2022-11-27T05:37:15.112Z,9.505
2022-11-27T05:38:12.203Z,9.529
2022-11-27T05:39:11.253Z,9.529
2022-11-27T05:40:11.827Z,9.574
2022-11-27T05:41:11.574Z,9.609
2022-11-27T05:42:11.826Z,9.609
2022-11-27T05:43:11.783Z,9.614
2022-11-27T05:44:11.881Z,9.631
2022-11-27T05:45:12.459Z,9.626
2022-11-27T05:46:11.767Z,9.609
2022-11-27T05:47:12.288Z,9.614
2022-11-27T05:48:11.708Z,9.609
2022-11-27T05:49:11.705Z,9.604
2022-11-27T05:50:12.088Z,9.600
2022-11-27T05:51:11.822Z,9.585
2022-11-27T05:52:11.645Z,9.574
2022-11-27T05:53:11.381Z,9.585
2022-11-27T05:54:11.648Z,9.604
2022-11-27T05:55:11.674Z,9.574
2022-11-27T05:56:11.715Z,9.579
2022-11-27T05:57:11.582Z,9.590
2022-11-27T05:58:11.607Z,9.585
2022-11-27T05:59:11.863Z,9.590
2022-11-27T06:00:12.389Z,9.569
2022-11-27T06:01:11.596Z,9.590
2022-11-27T06:02:16.465Z,9.590
2022-11-27T06:03:12.000Z,9.590
2022-11-27T06:04:11.365Z,9.609
2022-11-27T06:05:11.599Z,9.626
2022-11-27T06:06:12.010Z,9.649
2022-11-27T06:07:12.034Z,9.659
2022-11-27T06:08:11.378Z,9.670
2022-11-27T06:09:13.064Z,9.697
2022-11-27T06:10:11.557Z,9.678
2022-11-27T06:11:11.907Z,9.670
2022-11-27T06:12:11.794Z,9.642
2022-11-27T06:13:11.300Z,9.678
2022-11-27T06:14:11.529Z,9.689
2022-11-27T06:15:11.808Z,9.694
2022-11-27T06:16:12.182Z,9.699
2022-11-27T06:17:12.049Z,9.704
2022-11-27T06:18:12.014Z,9.75
2022-11-27T06:19:12.002Z,9.765
2022-11-27T06:20:12.392Z,9.75
2022-11-27T06:21:11.558Z,9.739
2022-11-27T06:22:11.670Z,9.697
2022-11-27T06:23:11.709Z,9.659
2022-11-27T06:24:11.677Z,9.671
2022-11-27T06:25:11.483Z,9.654
2022-11-27T06:26:11.911Z,9.671
2022-11-27T06:27:11.518Z,9.649
2022-11-27T06:28:11.737Z,9.664
2022-11-27T06:29:11.722Z,9.666
2022-11-27T06:30:12.188Z,9.684
2022-11-27T06:31:17.256Z,9.689
2022-11-27T06:32:12.383Z,9.704
2022-11-27T06:33:11.522Z,9.704
2022-11-27T06:34:11.742Z,9.694
2022-11-27T06:35:11.613Z,9.682
2022-11-27T06:36:11.438Z,9.682
2022-11-27T06:37:13.399Z,9.684
2022-11-27T06:38:11.778Z,9.649
2022-11-27T06:39:11.791Z,9.670
2022-11-27T06:40:11.808Z,9.663
2022-11-27T06:41:12.101Z,9.670
2022-11-27T06:42:11.759Z,9.649
2022-11-27T06:43:11.629Z,9.645
2022-11-27T06:44:11.765Z,9.670
2022-11-27T06:45:12.207Z,9.637
2022-11-27T06:46:12.027Z,9.652
2022-11-27T06:47:12.400Z,9.657
2022-11-27T06:48:11.767Z,9.649
2022-11-27T06:49:11.667Z,9.637
2022-11-27T06:50:12.108Z,9.649
2022-11-27T06:51:12.070Z,9.649
2022-11-27T06:52:12.143Z,9.637
2022-11-27T06:53:12.190Z,9.654
2022-11-27T06:54:12.255Z,9.654
2022-11-27T06:55:12.597Z,9.677
2022-11-27T06:56:11.633Z,9.699
2022-11-27T06:57:11.468Z,9.720
2022-11-27T06:58:12.045Z,9.715
2022-11-27T06:59:11.827Z,9.734
2022-11-27T07:00:13.363Z,9.75
2022-11-27T07:01:11.911Z,9.744
2022-11-27T07:02:12.520Z,9.75
2022-11-27T07:03:11.739Z,9.739
2022-11-27T07:04:11.907Z,9.770
2022-11-27T07:05:12.240Z,9.765
2022-11-27T07:06:11.268Z,9.795
2022-11-27T07:07:12.517Z,9.784
2022-11-27T07:08:11.627Z,9.800
2022-11-27T07:09:12.122Z,9.821
2022-11-27T07:10:12.349Z,9.833
2022-11-27T07:11:11.501Z,9.815
2022-11-27T07:12:11.792Z,9.810
2022-11-27T07:13:11.944Z,9.828
2022-11-27T07:14:12.302Z,9.821
2022-11-27T07:15:12.342Z,9.868
2022-11-27T07:16:11.814Z,9.876
2022-11-27T07:17:12.301Z,9.868
2022-11-27T07:18:11.801Z,9.874
2022-11-27T07:19:11.661Z,9.890
2022-11-27T07:20:11.809Z,9.904
2022-11-27T07:21:11.899Z,9.909
2022-11-27T07:22:11.972Z,9.920
2022-11-27T07:23:12.058Z,9.920
2022-11-27T07:24:12.322Z,9.930
2022-11-27T07:25:12.340Z,9.925
2022-11-27T07:26:11.839Z,9.930
2022-11-27T07:27:11.804Z,9.944
2022-11-27T07:28:15.984Z,9.930
2022-11-27T07:29:11.965Z,9.939
2022-11-27T07:30:12.531Z,9.935
2022-11-27T07:31:11.549Z,9.954
2022-11-27T07:32:11.897Z,9.954
2022-11-27T07:33:12.044Z,9.960
2022-11-27T07:34:17.082Z,9.979
2022-11-27T07:35:12.404Z,10.01
2022-11-27T07:36:11.280Z,10.01
2022-11-27T07:37:11.701Z,10.03
2022-11-27T07:38:12.131Z,10.06
2022-11-27T07:39:11.538Z,10.06
2022-11-27T07:40:13.860Z,10.07
2022-11-27T07:41:12.373Z,10.09
2022-11-27T07:42:36.880Z,10.10
2022-11-27T07:43:12.172Z,10.12
2022-11-27T07:44:11.925Z,10.10
2022-11-27T07:45:12.103Z,10.14
2022-11-27T07:46:12.231Z,10.13
2022-11-27T07:47:11.928Z,10.15
2022-11-27T07:48:12.376Z,10.15
2022-11-27T07:49:12.552Z,10.15
2022-11-27T07:50:11.863Z,10.17
2022-11-27T07:51:12.326Z,10.19
2022-11-27T07:52:11.726Z,10.21
2022-11-27T07:53:11.723Z,10.23
2022-11-27T07:54:11.934Z,10.22
2022-11-27T07:55:12.259Z,10.22
2022-11-27T07:56:11.491Z,10.24
2022-11-27T07:57:11.882Z,10.25
2022-11-27T07:58:12.252Z,10.27
2022-11-27T07:59:11.378Z,10.27
2022-11-27T08:00:12.254Z,10.31
2022-11-27T08:01:11.998Z,10.35
2022-11-27T08:02:12.496Z,10.35
2022-11-27T08:03:11.479Z,10.40
2022-11-27T08:04:11.854Z,10.41
2022-11-27T08:05:13.200Z,10.44
2022-11-27T08:06:12.112Z,10.46
2022-11-27T08:07:11.501Z,10.48
2022-11-27T08:08:11.741Z,10.54
2022-11-27T08:09:11.752Z,10.55
2022-11-27T08:10:12.228Z,10.56
2022-11-27T08:11:12.238Z,10.59
2022-11-27T08:12:11.345Z,10.62
2022-11-27T08:13:11.990Z,10.64
2022-11-27T08:14:12.258Z,10.65
2022-11-27T08:15:12.858Z,10.69
2022-11-27T08:16:12.164Z,10.71
2022-11-27T08:17:12.248Z,10.72
2022-11-27T08:18:11.254Z,10.77
2022-11-27T08:19:12.183Z,10.77
2022-11-27T08:20:11.477Z,10.79
2022-11-27T08:21:11.468Z,10.81
2022-11-27T08:22:11.883Z,10.80
2022-11-27T08:23:12.135Z,10.82
2022-11-27T08:24:11.859Z,10.84
2022-11-27T08:25:11.583Z,10.84
2022-11-27T08:26:11.832Z,10.86
2022-11-27T08:27:12.018Z,10.87
2022-11-27T08:28:10.899Z,10.90
2022-11-27T08:29:11.518Z,10.94
2022-11-27T08:30:12.095Z,10.91
2022-11-27T08:31:12.026Z,10.93
2022-11-27T08:32:12.460Z,10.97
2022-11-27T08:33:11.855Z,11
2022-11-27T08:34:11.712Z,11.03
2022-11-27T08:35:12.180Z,11.09
2022-11-27T08:36:17.673Z,11.10
2022-11-27T08:37:11.531Z,11.16
2022-11-27T08:38:11.764Z,11.19
2022-11-27T08:39:11.845Z,11.25
2022-11-27T08:40:12.101Z,11.30
2022-11-27T08:41:12.162Z,11.34
2022-11-27T08:42:12.013Z,11.40
2022-11-27T08:43:12.277Z,11.48
2022-11-27T08:44:11.711Z,11.52
2022-11-27T08:45:31.313Z,11.56
2022-11-27T08:46:11.703Z,11.59
2022-11-27T08:47:12.029Z,11.63
2022-11-27T08:48:12.434Z,11.69
2022-11-27T08:49:11.844Z,11.73
2022-11-27T08:50:11.735Z,11.77
2022-11-27T08:51:12.223Z,11.82
2022-11-27T08:52:11.460Z,11.87
2022-11-27T08:53:11.696Z,11.92
2022-11-27T08:54:12.080Z,11.94
2022-11-27T08:55:34.454Z,11.98
2022-11-27T08:56:11.632Z,12.01
2022-11-27T08:57:11.482Z,12.02
2022-11-27T08:58:11.771Z,12.03
2022-11-27T08:59:12.248Z,12.05
2022-11-27T09:00:12.191Z,12.05
2022-11-27T09:01:11.687Z,12.06
2022-11-27T09:02:12.174Z,12.09
2022-11-27T09:03:11.996Z,12.09
2022-11-27T09:04:12.251Z,12.10
2022-11-27T09:05:12.231Z,12.14
2022-11-27T09:06:11.294Z,12.14
2022-11-27T09:07:11.499Z,12.17
2022-11-27T09:08:11.596Z,12.18
2022-11-27T09:09:12.214Z,12.19
2022-11-27T09:10:11.815Z,12.18
2022-11-27T09:11:12.434Z,12.19
2022-11-27T09:12:11.744Z,12.20
2022-11-27T09:13:11.978Z,12.21
2022-11-27T09:14:12.272Z,12.22
2022-11-27T09:15:11.065Z,12.22
2022-11-27T09:16:11.565Z,12.22
2022-11-27T09:17:12.289Z,12.24
2022-11-27T09:18:11.698Z,12.26
2022-11-27T09:19:11.997Z,12.27
2022-11-27T09:20:12.601Z,12.31
2022-11-27T09:21:11.670Z,12.32
2022-11-27T09:22:11.889Z,12.33
2022-11-27T09:23:14.468Z,12.37
2022-11-27T09:24:11.964Z,12.36
2022-11-27T09:25:12.494Z,12.39
2022-11-27T09:26:11.754Z,12.40
2022-11-27T09:27:12.162Z,12.40
2022-11-27T09:28:11.479Z,12.42
2022-11-27T09:29:12.127Z,12.43
2022-11-27T09:30:11.681Z,12.46
2022-11-27T09:31:11.653Z,12.50
2022-11-27T09:32:12.006Z,12.55
2022-11-27T09:33:11.586Z,12.57
2022-11-27T09:34:11.674Z,12.61
2022-11-27T09:35:12.135Z,12.63
2022-11-27T09:36:11.765Z,12.66
2022-11-27T09:37:11.888Z,12.68
2022-11-27T09:38:12.140Z,12.69
2022-11-27T09:39:11.445Z,12.70
2022-11-27T09:40:11.915Z,12.74
2022-11-27T09:41:12.343Z,12.73
2022-11-27T09:42:11.507Z,12.76
2022-11-27T09:43:11.713Z,12.77
2022-11-27T09:44:12.077Z,12.80
2022-11-27T09:45:12.098Z,12.83
2022-11-27T09:46:11.447Z,12.88
2022-11-27T09:47:11.383Z,12.91
2022-11-27T09:48:11.604Z,12.94
2022-11-27T09:49:11.855Z,12.99
2022-11-27T09:50:12.123Z,13.01
2022-11-27T09:51:12.224Z,13.01
2022-11-27T09:52:11.607Z,13.07
2022-11-27T09:53:11.748Z,13.13
2022-11-27T09:54:12.172Z,13.18
2022-11-27T09:55:12.642Z,13.23
2022-11-27T09:56:12.067Z,13.27
2022-11-27T09:57:11.929Z,13.27
2022-11-27T09:58:12.156Z,13.29
2022-11-27T09:59:12.155Z,13.32
2022-11-27T10:00:12.567Z,13.36
2022-11-27T10:01:12.239Z,13.39
2022-11-27T10:02:11.728Z,13.42
2022-11-27T10:03:12.575Z,13.46
2022-11-27T10:04:11.971Z,13.49
2022-11-27T10:05:14.264Z,13.52
2022-11-27T10:06:11.943Z,13.54
2022-11-27T10:07:12.272Z,13.57
2022-11-27T10:08:11.862Z,13.60
2022-11-27T10:09:12.226Z,13.64
2022-11-27T10:10:11.807Z,13.64
2022-11-27T10:11:12.225Z,13.68
2022-11-27T10:12:11.527Z,13.75
2022-11-27T10:13:11.710Z,13.77
2022-11-27T10:14:12.226Z,13.80
2022-11-27T10:15:12.586Z,13.81
2022-11-27T10:16:11.664Z,13.84
2022-11-27T10:17:12.165Z,13.87
2022-11-27T10:18:11.274Z,13.89
2022-11-27T10:19:12.238Z,13.89
2022-11-27T10:20:12.677Z,13.88
2022-11-27T10:21:12.272Z,13.92
2022-11-27T10:22:13.379Z,13.93
2022-11-27T10:23:11.677Z,13.92
2022-11-27T10:24:12.045Z,13.93
2022-11-27T10:25:12.398Z,13.89
2022-11-27T10:26:11.925Z,13.92
2022-11-27T10:27:12.558Z,13.90
2022-11-27T10:28:11.933Z,13.90
2022-11-27T10:29:12.379Z,13.88
2022-11-27T10:30:12.329Z,13.86
2022-11-27T10:31:11.730Z,13.87
2022-11-27T10:32:32.821Z,13.85
2022-11-27T10:33:11.859Z,13.86
2022-11-27T10:34:12.233Z,13.87
2022-11-27T10:35:11.663Z,13.89
2022-11-27T10:36:11.831Z,13.90
2022-11-27T10:37:12.440Z,13.92
2022-11-27T10:38:17.054Z,13.93
2022-11-27T10:39:11.884Z,13.96
2022-11-27T10:40:12.535Z,13.95
2022-11-27T10:41:34.320Z,13.96
2022-11-27T10:42:12.140Z,13.96
2022-11-27T10:43:11.561Z,13.94
2022-11-27T10:44:11.709Z,13.95
2022-11-27T10:45:12.029Z,13.97
2022-11-27T10:46:12.238Z,13.99
2022-11-27T10:47:12.049Z,14.00
2022-11-27T10:48:12.392Z,14.05
2022-11-27T10:49:12.659Z,14.06
2022-11-27T10:50:11.958Z,14.10
2022-11-27T10:51:12.109Z,14.10
2022-11-27T10:52:12.251Z,14.15
2022-11-27T10:53:11.454Z,14.13
2022-11-27T10:54:12.029Z,14.17
2022-11-27T10:55:12.456Z,14.19
2022-11-27T10:56:11.550Z,14.21
2022-11-27T10:57:11.686Z,14.26
2022-11-27T10:58:11.964Z,14.27
2022-11-27T10:59:12.281Z,14.31
2022-11-27T11:00:13.073Z,14.31
2022-11-27T11:01:12.139Z,14.31
2022-11-27T11:02:11.839Z,14.33
2022-11-27T11:03:12.121Z,14.32
2022-11-27T11:04:24.717Z,14.36
2022-11-27T11:05:34.577Z,14.39
2022-11-27T11:06:31.060Z,14.40
2022-11-27T11:07:11.703Z,14.40
2022-11-27T11:08:12.088Z,14.44
2022-11-27T11:09:12.040Z,14.47
2022-11-27T11:10:31.601Z,14.46
2022-11-27T11:11:11.885Z,14.50
2022-11-27T11:12:12.377Z,14.51
2022-11-27T11:13:11.697Z,14.51
2022-11-27T11:14:11.613Z,14.52
2022-11-27T11:15:12.295Z,14.54
2022-11-27T11:16:14.727Z,14.56
2022-11-27T11:17:11.913Z,14.59
2022-11-27T11:18:11.384Z,14.60
2022-11-27T11:19:11.832Z,14.65
2022-11-27T11:20:12.532Z,14.63
2022-11-27T11:21:11.893Z,14.64
2022-11-27T11:22:14.616Z,14.63
2022-11-27T11:23:11.870Z,14.64
2022-11-27T11:24:12.130Z,14.62
2022-11-27T11:25:11.561Z,14.66
2022-11-27T11:26:11.597Z,14.68
2022-11-27T11:27:11.819Z,14.68
2022-11-27T11:28:12.206Z,14.72
2022-11-27T11:29:11.418Z,14.71
2022-11-27T11:30:12.319Z,14.71
2022-11-27T11:31:11.797Z,14.73
2022-11-27T11:32:12.443Z,14.75
2022-11-27T11:33:11.468Z,14.76
2022-11-27T11:34:11.841Z,14.77
2022-11-27T11:35:11.841Z,14.72
2022-11-27T11:36:11.763Z,14.72
2022-11-27T11:37:11.991Z,14.72
2022-11-27T11:38:11.663Z,14.72
2022-11-27T11:39:11.551Z,14.68
2022-11-27T11:40:16.030Z,14.63
2022-11-27T11:41:11.949Z,14.63
2022-11-27T11:42:12.109Z,14.59
2022-11-27T11:43:12.299Z,14.63
2022-11-27T11:44:11.520Z,14.63
2022-11-27T11:45:11.632Z,14.63
2022-11-27T11:46:11.684Z,14.67
2022-11-27T11:47:11.382Z,14.68
2022-11-27T11:48:11.897Z,14.69
2022-11-27T11:49:11.934Z,14.72
2022-11-27T11:50:12.243Z,14.74
2022-11-27T11:51:11.731Z,14.76
2022-11-27T11:52:12.143Z,14.78
2022-11-27T11:53:12.237Z,14.78
2022-11-27T11:54:12.292Z,14.80
2022-11-27T11:55:12.734Z,14.79
2022-11-27T11:56:11.844Z,14.78
2022-11-27T11:57:12.103Z,14.78
2022-11-27T11:58:12.206Z,14.78
2022-11-27T11:59:12.499Z,14.77
2022-11-27T12:00:11.964Z,14.78
2022-11-27T12:01:26.324Z,14.79
2022-11-27T12:02:12.451Z,14.77
2022-11-27T12:03:11.830Z,14.76
2022-11-27T12:04:11.776Z,14.78
2022-11-27T12:05:12.518Z,14.77
2022-11-27T12:06:11.642Z,14.77
2022-11-27T12:07:11.766Z,14.77
2022-11-27T12:08:12.319Z,14.77
2022-11-27T12:09:11.696Z,14.77
2022-11-27T12:10:12.086Z,14.80
2022-11-27T12:11:11.385Z,14.78
2022-11-27T12:12:11.765Z,14.78
2022-11-27T12:13:12.236Z,14.78
2022-11-27T12:14:11.333Z,14.77
2022-11-27T12:15:12.623Z,14.80
2022-11-27T12:17:11.541Z,14.78
2022-11-27T12:18:12.336Z,14.75
2022-11-27T12:19:11.601Z,14.75
2022-11-27T12:20:11.776Z,14.74
2022-11-27T12:21:12.140Z,14.69
2022-11-27T12:22:11.099Z,14.69
2022-11-27T12:23:11.204Z,14.68
2022-11-27T12:24:11.420Z,14.65
2022-11-27T12:25:11.886Z,14.55
2022-11-27T12:26:11.303Z,14.84
2022-11-27T12:27:11.633Z,15.57
2022-11-27T12:28:11.621Z,15.95
2022-11-27T12:29:11.531Z,16.21
2022-11-27T12:30:12.634Z,16.32
2022-11-27T12:31:11.995Z,16.38
2022-11-27T12:32:12.100Z,16.50
2022-11-27T12:33:12.243Z,16.46
2022-11-27T12:34:12.188Z,16.45
2022-11-27T12:35:12.349Z,16.37
2022-11-27T12:36:11.126Z,16.42
2022-11-27T12:37:14.159Z,16.46
2022-11-27T12:38:11.668Z,16.47
2022-11-27T12:39:11.677Z,16.45
2022-11-27T12:40:12.204Z,16.44
2022-11-27T12:41:12.403Z,16.43
2022-11-27T12:42:11.589Z,16.47
2022-11-27T12:43:11.900Z,16.45
2022-11-27T12:44:11.940Z,16.42
2022-11-27T12:45:12.450Z,16.45
2022-11-27T12:46:11.882Z,16.45
2022-11-27T12:47:12.611Z,16.47
2022-11-27T12:48:11.561Z,16.5
2022-11-27T12:49:11.706Z,16.48
2022-11-27T12:50:12.474Z,16.49
2022-11-27T12:51:11.637Z,16.5
2022-11-27T12:52:12.026Z,16.50
2022-11-27T12:53:12.113Z,16.46
2022-11-27T12:54:11.378Z,16.47
2022-11-27T12:55:11.863Z,16.49